Phoenix, Arizona
Traffic Map
Current Weather Conditions
Phoenix, Arizona
Scattered Clouds
Scattered Clouds
85°
Feels Like: 85°
Wind Chill: 85° Ceiling: Unl
Heat Index: 85° Visibility: 10mi
Dew Point: 37° Wind: 13mph
Humidity: 18% Direction: 240° (WSW)
Pressure: 29.56in Gusts: 0mph
Raw Report DataKPHX 280251Z 24011KT 10SM SCT250 SCT290 29/03 A2956 RMK AO2 SLP992 T02940028 53005
Traffic Incident Summary
Active as of:
Severity:
Category:
InformationThere was an issue retrieving the traffic information for this location. Please try a different location or try again shortly.
Advertisements
Track Severe Weather on mobile